sensor_id;sensor_type;location;lat;lon;timestamp;temperature;humidity
12872;DHT22;6504;53.766;9.626;2022-09-13T00:00:13;17.30;99.90
12872;DHT22;6504;53.766;9.626;2022-09-13T00:02:59;17.30;99.90
12872;DHT22;6504;53.766;9.626;2022-09-13T00:05:48;17.30;99.90
12872;DHT22;6504;53.766;9.626;2022-09-13T00:08:34;17.30;99.90
12872;DHT22;6504;53.766;9.626;2022-09-13T00:11:21;17.30;99.90
12872;DHT22;6504;53.766;9.626;2022-09-13T00:14:12;17.40;99.90
12872;DHT22;6504;53.766;9.626;2022-09-13T00:16:58;17.40;99.90
12872;DHT22;6504;53.766;9.626;2022-09-13T00:19:43;17.40;99.90
12872;DHT22;6504;53.766;9.626;2022-09-13T00:22:29;17.40;99.90
12872;DHT22;6504;53.766;9.626;2022-09-13T00:25:16;17.40;99.90
12872;DHT22;6504;53.766;9.626;2022-09-13T00:28:03;17.30;99.90
12872;DHT22;6504;53.766;9.626;2022-09-13T00:30:52;17.30;99.90
12872;DHT22;6504;53.766;9.626;2022-09-13T00:33:38;17.30;99.90
12872;DHT22;6504;53.766;9.626;2022-09-13T00:36:23;17.30;99.90
12872;DHT22;6504;53.766;9.626;2022-09-13T00:39:09;17.30;99.90
12872;DHT22;6504;53.766;9.626;2022-09-13T00:41:55;17.30;99.90
12872;DHT22;6504;53.766;9.626;2022-09-13T00:44:53;17.30;99.90
12872;DHT22;6504;53.766;9.626;2022-09-13T00:47:52;17.30;99.90
12872;DHT22;6504;53.766;9.626;2022-09-13T00:50:41;17.30;99.90
12872;DHT22;6504;53.766;9.626;2022-09-13T00:53:31;17.30;99.90
12872;DHT22;6504;53.766;9.626;2022-09-13T00:56:24;17.30;99.90
12872;DHT22;6504;53.766;9.626;2022-09-13T00:59:14;17.30;99.90
12872;DHT22;6504;53.766;9.626;2022-09-13T01:02:02;17.40;99.90
12872;DHT22;6504;53.766;9.626;2022-09-13T01:04:53;17.40;99.90
12872;DHT22;6504;53.766;9.626;2022-09-13T01:07:39;17.40;99.90
12872;DHT22;6504;53.766;9.626;2022-09-13T01:10:25;17.40;99.90
12872;DHT22;6504;53.766;9.626;2022-09-13T01:13:14;17.40;99.90
12872;DHT22;6504;53.766;9.626;2022-09-13T01:16:01;17.30;99.90
12872;DHT22;6504;53.766;9.626;2022-09-13T01:18:46;17.30;99.90
12872;DHT22;6504;53.766;9.626;2022-09-13T01:26:09;17.30;99.90
12872;DHT22;6504;53.766;9.626;2022-09-13T01:29:27;17.30;99.90
12872;DHT22;6504;53.766;9.626;2022-09-13T01:32:09;17.20;99.90
12872;DHT22;6504;53.766;9.626;2022-09-13T01:34:49;17.20;99.90
12872;DHT22;6504;53.766;9.626;2022-09-13T01:37:38;17.20;99.90
12872;DHT22;6504;53.766;9.626;2022-09-13T01:40:17;17.20;99.90
12872;DHT22;6504;53.766;9.626;2022-09-13T01:43:06;17.10;99.90
12872;DHT22;6504;53.766;9.626;2022-09-13T01:45:47;17.10;99.90
12872;DHT22;6504;53.766;9.626;2022-09-13T01:48:24;17.10;99.90
12872;DHT22;6504;53.766;9.626;2022-09-13T01:51:00;17.10;99.90
12872;DHT22;6504;53.766;9.626;2022-09-13T01:53:39;17.10;99.90
12872;DHT22;6504;53.766;9.626;2022-09-13T01:56:19;17.10;99.90
12872;DHT22;6504;53.766;9.626;2022-09-13T01:58:57;17.10;99.90
12872;DHT22;6504;53.766;9.626;2022-09-13T02:01:31;17.10;99.90
12872;DHT22;6504;53.766;9.626;2022-09-13T02:04:04;17.10;99.90
12872;DHT22;6504;53.766;9.626;2022-09-13T02:06:39;17.10;99.90
12872;DHT22;6504;53.766;9.626;2022-09-13T02:09:11;17.00;99.90
12872;DHT22;6504;53.766;9.626;2022-09-13T02:11:49;17.00;99.90
12872;DHT22;6504;53.766;9.626;2022-09-13T02:14:23;17.00;99.90
12872;DHT22;6504;53.766;9.626;2022-09-13T02:16:56;17.00;99.90
12872;DHT22;6504;53.766;9.626;2022-09-13T02:19:35;17.00;99.90
12872;DHT22;6504;53.766;9.626;2022-09-13T02:22:06;16.90;99.90
12872;DHT22;6504;53.766;9.626;2022-09-13T02:24:40;16.90;99.90
12872;DHT22;6504;53.766;9.626;2022-09-13T02:27:15;16.90;99.90
12872;DHT22;6504;53.766;9.626;2022-09-13T02:29:46;16.80;99.90
12872;DHT22;6504;53.766;9.626;2022-09-13T02:32:19;16.80;99.90
12872;DHT22;6504;53.766;9.626;2022-09-13T02:34:52;16.70;99.90
12872;DHT22;6504;53.766;9.626;2022-09-13T02:37:24;16.80;99.90
12872;DHT22;6504;53.766;9.626;2022-09-13T02:39:58;16.70;99.90
12872;DHT22;6504;53.766;9.626;2022-09-13T02:42:32;16.70;99.90
12872;DHT22;6504;53.766;9.626;2022-09-13T02:45:06;16.70;99.90
12872;DHT22;6504;53.766;9.626;2022-09-13T02:47:41;16.70;99.90
12872;DHT22;6504;53.766;9.626;2022-09-13T02:50:32;16.70;99.90
12872;DHT22;6504;53.766;9.626;2022-09-13T02:53:06;16.70;99.90
12872;DHT22;6504;53.766;9.626;2022-09-13T02:55:43;16.60;99.90
12872;DHT22;6504;53.766;9.626;2022-09-13T02:58:13;16.60;99.90
12872;DHT22;6504;53.766;9.626;2022-09-13T03:00:53;16.60;99.90
12872;DHT22;6504;53.766;9.626;2022-09-13T03:03:22;16.60;99.90
12872;DHT22;6504;53.766;9.626;2022-09-13T03:05:52;16.60;99.90
12872;DHT22;6504;53.766;9.626;2022-09-13T03:08:23;16.60;99.90
12872;DHT22;6504;53.766;9.626;2022-09-13T03:11:00;16.60;99.90
12872;DHT22;6504;53.766;9.626;2022-09-13T03:13:52;16.60;99.90
12872;DHT22;6504;53.766;9.626;2022-09-13T03:16:35;16.60;99.90
12872;DHT22;6504;53.766;9.626;2022-09-13T03:19:21;16.60;99.90
12872;DHT22;6504;53.766;9.626;2022-09-13T03:22:08;16.60;99.90
12872;DHT22;6504;53.766;9.626;2022-09-13T03:24:48;16.60;99.90
12872;DHT22;6504;53.766;9.626;2022-09-13T03:27:32;16.60;99.90
12872;DHT22;6504;53.766;9.626;2022-09-13T03:30:07;16.60;99.90
12872;DHT22;6504;53.766;9.626;2022-09-13T03:32:40;16.60;99.90
12872;DHT22;6504;53.766;9.626;2022-09-13T03:35:25;16.60;99.90
12872;DHT22;6504;53.766;9.626;2022-09-13T03:37:59;16.60;99.90
12872;DHT22;6504;53.766;9.626;2022-09-13T03:40:39;16.60;99.90
12872;DHT22;6504;53.766;9.626;2022-09-13T03:43:11;16.60;99.90
12872;DHT22;6504;53.766;9.626;2022-09-13T03:45:46;16.60;99.90
12872;DHT22;6504;53.766;9.626;2022-09-13T03:48:16;16.60;99.90
12872;DHT22;6504;53.766;9.626;2022-09-13T03:50:46;16.70;99.90
12872;DHT22;6504;53.766;9.626;2022-09-13T03:53:20;16.60;99.90
12872;DHT22;6504;53.766;9.626;2022-09-13T03:55:53;16.60;99.90
12872;DHT22;6504;53.766;9.626;2022-09-13T03:58:24;16.60;99.90
12872;DHT22;6504;53.766;9.626;2022-09-13T04:00:55;16.60;99.90
12872;DHT22;6504;53.766;9.626;2022-09-13T04:03:23;16.60;99.90
12872;DHT22;6504;53.766;9.626;2022-09-13T04:05:54;16.60;99.90
12872;DHT22;6504;53.766;9.626;2022-09-13T04:08:23;16.60;99.90
12872;DHT22;6504;53.766;9.626;2022-09-13T04:10:51;16.60;99.90
12872;DHT22;6504;53.766;9.626;2022-09-13T04:13:22;16.60;99.90
12872;DHT22;6504;53.766;9.626;2022-09-13T04:15:51;16.60;99.90
12872;DHT22;6504;53.766;9.626;2022-09-13T04:18:19;16.60;99.90
12872;DHT22;6504;53.766;9.626;2022-09-13T04:20:52;16.60;99.90
12872;DHT22;6504;53.766;9.626;2022-09-13T04:23:27;16.60;99.90
12872;DHT22;6504;53.766;9.626;2022-09-13T04:26:00;16.60;99.90
12872;DHT22;6504;53.766;9.626;2022-09-13T04:28:28;16.60;99.90
12872;DHT22;6504;53.766;9.626;2022-09-13T04:30:56;16.60;99.90
12872;DHT22;6504;53.766;9.626;2022-09-13T04:33:25;16.60;99.90
12872;DHT22;6504;53.766;9.626;2022-09-13T04:35:57;16.60;99.90
12872;DHT22;6504;53.766;9.626;2022-09-13T04:38:27;16.60;99.90
12872;DHT22;6504;53.766;9.626;2022-09-13T04:41:00;16.60;99.90
12872;DHT22;6504;53.766;9.626;2022-09-13T04:43:28;16.60;99.90
12872;DHT22;6504;53.766;9.626;2022-09-13T04:45:59;16.60;99.90
12872;DHT22;6504;53.766;9.626;2022-09-13T04:48:27;16.60;99.90
12872;DHT22;6504;53.766;9.626;2022-09-13T04:51:00;16.70;99.90
12872;DHT22;6504;53.766;9.626;2022-09-13T04:53:31;16.60;99.90
12872;DHT22;6504;53.766;9.626;2022-09-13T04:56:00;16.70;99.90
12872;DHT22;6504;53.766;9.626;2022-09-13T04:58:28;16.70;99.90
12872;DHT22;6504;53.766;9.626;2022-09-13T05:01:00;16.70;99.90
12872;DHT22;6504;53.766;9.626;2022-09-13T05:03:29;16.70;99.90
12872;DHT22;6504;53.766;9.626;2022-09-13T05:06:01;16.70;99.90
12872;DHT22;6504;53.766;9.626;2022-09-13T05:08:31;16.70;99.90
12872;DHT22;6504;53.766;9.626;2022-09-13T05:10:59;16.80;99.90
12872;DHT22;6504;53.766;9.626;2022-09-13T05:13:27;16.70;99.90
12872;DHT22;6504;53.766;9.626;2022-09-13T05:15:56;16.70;99.90
12872;DHT22;6504;53.766;9.626;2022-09-13T05:18:26;16.80;99.90
12872;DHT22;6504;53.766;9.626;2022-09-13T05:21:02;16.70;99.90
12872;DHT22;6504;53.766;9.626;2022-09-13T05:23:33;16.80;99.90
12872;DHT22;6504;53.766;9.626;2022-09-13T05:26:05;16.80;99.90
12872;DHT22;6504;53.766;9.626;2022-09-13T05:28:34;16.80;99.90
12872;DHT22;6504;53.766;9.626;2022-09-13T05:31:04;16.80;99.90
12872;DHT22;6504;53.766;9.626;2022-09-13T05:33:35;16.90;99.90
12872;DHT22;6504;53.766;9.626;2022-09-13T05:36:04;16.80;99.90
12872;DHT22;6504;53.766;9.626;2022-09-13T05:38:35;16.90;99.90
12872;DHT22;6504;53.766;9.626;2022-09-13T05:41:04;16.90;99.90
12872;DHT22;6504;53.766;9.626;2022-09-13T05:43:34;16.90;99.90
12872;DHT22;6504;53.766;9.626;2022-09-13T05:46:04;16.90;99.90
12872;DHT22;6504;53.766;9.626;2022-09-13T05:48:36;16.90;99.90
12872;DHT22;6504;53.766;9.626;2022-09-13T05:51:06;16.90;99.90
12872;DHT22;6504;53.766;9.626;2022-09-13T05:53:42;16.90;99.90
12872;DHT22;6504;53.766;9.626;2022-09-13T05:56:15;16.90;99.90
12872;DHT22;6504;53.766;9.626;2022-09-13T05:58:46;16.90;99.90
12872;DHT22;6504;53.766;9.626;2022-09-13T06:01:16;16.90;99.90
12872;DHT22;6504;53.766;9.626;2022-09-13T06:03:46;16.90;99.90
12872;DHT22;6504;53.766;9.626;2022-09-13T06:06:18;16.90;99.90
12872;DHT22;6504;53.766;9.626;2022-09-13T06:08:51;16.90;99.90
12872;DHT22;6504;53.766;9.626;2022-09-13T06:11:19;16.90;99.90
12872;DHT22;6504;53.766;9.626;2022-09-13T06:13:47;16.90;99.90
12872;DHT22;6504;53.766;9.626;2022-09-13T06:16:15;16.90;99.90
12872;DHT22;6504;53.766;9.626;2022-09-13T06:18:46;16.90;99.90
12872;DHT22;6504;53.766;9.626;2022-09-13T06:21:17;16.90;99.90
12872;DHT22;6504;53.766;9.626;2022-09-13T06:23:51;16.90;99.90
12872;DHT22;6504;53.766;9.626;2022-09-13T06:26:21;16.90;99.90
12872;DHT22;6504;53.766;9.626;2022-09-13T06:28:54;16.90;99.90
12872;DHT22;6504;53.766;9.626;2022-09-13T06:31:24;16.90;99.90
12872;DHT22;6504;53.766;9.626;2022-09-13T06:33:58;17.00;99.90
12872;DHT22;6504;53.766;9.626;2022-09-13T06:36:27;16.90;99.90
12872;DHT22;6504;53.766;9.626;2022-09-13T06:39:02;17.00;99.90
12872;DHT22;6504;53.766;9.626;2022-09-13T06:41:32;17.00;99.90
12872;DHT22;6504;53.766;9.626;2022-09-13T06:44:04;17.00;99.90
12872;DHT22;6504;53.766;9.626;2022-09-13T06:46:35;17.00;99.90
12872;DHT22;6504;53.766;9.626;2022-09-13T06:49:08;17.10;99.90
12872;DHT22;6504;53.766;9.626;2022-09-13T06:51:36;17.10;99.90
12872;DHT22;6504;53.766;9.626;2022-09-13T06:54:06;17.20;99.90
12872;DHT22;6504;53.766;9.626;2022-09-13T06:56:38;17.20;99.90
12872;DHT22;6504;53.766;9.626;2022-09-13T06:59:07;17.20;99.90
12872;DHT22;6504;53.766;9.626;2022-09-13T07:01:40;17.20;99.90
12872;DHT22;6504;53.766;9.626;2022-09-13T07:04:11;17.30;99.90
12872;DHT22;6504;53.766;9.626;2022-09-13T07:06:41;17.30;99.90
12872;DHT22;6504;53.766;9.626;2022-09-13T07:09:13;17.30;99.90
12872;DHT22;6504;53.766;9.626;2022-09-13T07:11:41;17.40;99.90
12872;DHT22;6504;53.766;9.626;2022-09-13T07:14:12;17.40;99.90
12872;DHT22;6504;53.766;9.626;2022-09-13T07:16:41;17.40;99.90
12872;DHT22;6504;53.766;9.626;2022-09-13T07:19:12;17.40;99.90
12872;DHT22;6504;53.766;9.626;2022-09-13T07:21:44;17.50;99.90
12872;DHT22;6504;53.766;9.626;2022-09-13T07:24:13;17.50;99.90
12872;DHT22;6504;53.766;9.626;2022-09-13T07:26:42;17.50;99.90
12872;DHT22;6504;53.766;9.626;2022-09-13T07:29:17;17.50;99.90
12872;DHT22;6504;53.766;9.626;2022-09-13T07:31:49;17.50;99.90
12872;DHT22;6504;53.766;9.626;2022-09-13T07:34:21;17.50;99.90
12872;DHT22;6504;53.766;9.626;2022-09-13T07:36:50;17.50;99.90
12872;DHT22;6504;53.766;9.626;2022-09-13T07:39:22;17.50;99.90
12872;DHT22;6504;53.766;9.626;2022-09-13T07:41:50;17.50;99.90
12872;DHT22;6504;53.766;9.626;2022-09-13T07:44:23;17.50;99.90
12872;DHT22;6504;53.766;9.626;2022-09-13T07:46:54;17.50;99.90
12872;DHT22;6504;53.766;9.626;2022-09-13T07:49:26;17.50;99.90
12872;DHT22;6504;53.766;9.626;2022-09-13T07:51:57;17.50;99.90
12872;DHT22;6504;53.766;9.626;2022-09-13T07:54:29;17.50;99.90
12872;DHT22;6504;53.766;9.626;2022-09-13T07:57:03;17.50;99.90
12872;DHT22;6504;53.766;9.626;2022-09-13T07:59:31;17.50;99.90
12872;DHT22;6504;53.766;9.626;2022-09-13T08:01:59;17.50;99.90
12872;DHT22;6504;53.766;9.626;2022-09-13T08:04:27;17.50;99.90
12872;DHT22;6504;53.766;9.626;2022-09-13T08:07:01;17.60;99.90
12872;DHT22;6504;53.766;9.626;2022-09-13T08:09:31;17.60;99.90
12872;DHT22;6504;53.766;9.626;2022-09-13T08:11:59;17.70;99.90
12872;DHT22;6504;53.766;9.626;2022-09-13T08:14:29;17.70;99.90
12872;DHT22;6504;53.766;9.626;2022-09-13T08:16:57;17.70;99.90
12872;DHT22;6504;53.766;9.626;2022-09-13T08:19:28;17.70;99.90
12872;DHT22;6504;53.766;9.626;2022-09-13T08:21:56;17.70;99.90
12872;DHT22;6504;53.766;9.626;2022-09-13T08:24:24;17.80;99.90
12872;DHT22;6504;53.766;9.626;2022-09-13T08:26:55;17.80;99.90
12872;DHT22;6504;53.766;9.626;2022-09-13T08:29:23;17.80;99.90
12872;DHT22;6504;53.766;9.626;2022-09-13T08:31:51;17.80;99.90
12872;DHT22;6504;53.766;9.626;2022-09-13T08:34:22;17.80;99.90
12872;DHT22;6504;53.766;9.626;2022-09-13T08:36:50;17.80;99.90
12872;DHT22;6504;53.766;9.626;2022-09-13T08:39:22;17.80;99.90
12872;DHT22;6504;53.766;9.626;2022-09-13T08:42:10;17.80;99.90
12872;DHT22;6504;53.766;9.626;2022-09-13T08:44:44;17.90;99.90
12872;DHT22;6504;53.766;9.626;2022-09-13T08:47:33;17.90;99.90
12872;DHT22;6504;53.766;9.626;2022-09-13T08:50:13;17.90;99.90
12872;DHT22;6504;53.766;9.626;2022-09-13T08:52:50;18.00;99.90
12872;DHT22;6504;53.766;9.626;2022-09-13T08:55:26;18.00;99.90
12872;DHT22;6504;53.766;9.626;2022-09-13T08:58:02;18.10;99.90
12872;DHT22;6504;53.766;9.626;2022-09-13T09:00:39;18.20;99.90
12872;DHT22;6504;53.766;9.626;2022-09-13T09:03:20;18.20;99.90
12872;DHT22;6504;53.766;9.626;2022-09-13T09:05:52;18.30;99.90
12872;DHT22;6504;53.766;9.626;2022-09-13T09:08:28;18.30;99.90
12872;DHT22;6504;53.766;9.626;2022-09-13T09:11:03;18.40;99.90
12872;DHT22;6504;53.766;9.626;2022-09-13T09:13:39;18.40;99.90
12872;DHT22;6504;53.766;9.626;2022-09-13T09:16:17;18.50;99.90
12872;DHT22;6504;53.766;9.626;2022-09-13T09:18:52;18.60;99.90
12872;DHT22;6504;53.766;9.626;2022-09-13T09:21:24;18.70;99.90
12872;DHT22;6504;53.766;9.626;2022-09-13T09:23:55;18.80;99.90
12872;DHT22;6504;53.766;9.626;2022-09-13T09:26:26;18.90;99.90
12872;DHT22;6504;53.766;9.626;2022-09-13T09:28:58;18.90;99.90
12872;DHT22;6504;53.766;9.626;2022-09-13T09:31:34;18.90;99.90
12872;DHT22;6504;53.766;9.626;2022-09-13T09:34:12;18.90;99.90
12872;DHT22;6504;53.766;9.626;2022-09-13T09:36:48;19.00;99.90
12872;DHT22;6504;53.766;9.626;2022-09-13T09:39:29;19.00;99.90
12872;DHT22;6504;53.766;9.626;2022-09-13T09:41:59;19.00;99.90
12872;DHT22;6504;53.766;9.626;2022-09-13T09:44:33;19.00;99.90
12872;DHT22;6504;53.766;9.626;2022-09-13T09:47:09;19.00;99.90
12872;DHT22;6504;53.766;9.626;2022-09-13T09:49:41;19.10;99.90
12872;DHT22;6504;53.766;9.626;2022-09-13T09:52:35;19.10;99.90
12872;DHT22;6504;53.766;9.626;2022-09-13T09:55:21;19.10;99.90
12872;DHT22;6504;53.766;9.626;2022-09-13T09:57:53;19.20;99.90
12872;DHT22;6504;53.766;9.626;2022-09-13T10:00:25;19.30;99.90
12872;DHT22;6504;53.766;9.626;2022-09-13T10:02:57;19.30;99.90
12872;DHT22;6504;53.766;9.626;2022-09-13T10:05:27;19.30;99.90
12872;DHT22;6504;53.766;9.626;2022-09-13T10:08:00;19.30;99.90
12872;DHT22;6504;53.766;9.626;2022-09-13T10:10:37;19.30;99.90
12872;DHT22;6504;53.766;9.626;2022-09-13T10:13:13;19.40;99.90
12872;DHT22;6504;53.766;9.626;2022-09-13T10:15:55;19.40;99.90
12872;DHT22;6504;53.766;9.626;2022-09-13T10:18:25;19.30;99.90
12872;DHT22;6504;53.766;9.626;2022-09-13T10:21:24;19.30;99.90
12872;DHT22;6504;53.766;9.626;2022-09-13T10:24:15;19.30;99.90
12872;DHT22;6504;53.766;9.626;2022-09-13T10:26:43;19.30;99.90
12872;DHT22;6504;53.766;9.626;2022-09-13T10:29:14;19.40;99.90
12872;DHT22;6504;53.766;9.626;2022-09-13T10:31:46;19.50;99.90
12872;DHT22;6504;53.766;9.626;2022-09-13T10:34:26;19.50;99.90
12872;DHT22;6504;53.766;9.626;2022-09-13T10:36:59;19.60;99.90
12872;DHT22;6504;53.766;9.626;2022-09-13T10:39:35;19.70;99.90
12872;DHT22;6504;53.766;9.626;2022-09-13T10:42:05;19.70;99.90
12872;DHT22;6504;53.766;9.626;2022-09-13T10:44:38;19.70;99.90
12872;DHT22;6504;53.766;9.626;2022-09-13T10:47:17;19.80;99.90
12872;DHT22;6504;53.766;9.626;2022-09-13T10:49:51;19.80;99.90
12872;DHT22;6504;53.766;9.626;2022-09-13T10:52:28;19.80;99.90
12872;DHT22;6504;53.766;9.626;2022-09-13T10:55:24;19.80;99.90
12872;DHT22;6504;53.766;9.626;2022-09-13T10:57:54;19.80;99.90
12872;DHT22;6504;53.766;9.626;2022-09-13T11:00:24;19.90;99.90
12872;DHT22;6504;53.766;9.626;2022-09-13T11:03:18;20.00;99.90
12872;DHT22;6504;53.766;9.626;2022-09-13T11:05:56;20.00;99.90
12872;DHT22;6504;53.766;9.626;2022-09-13T11:08:40;20.00;99.90
12872;DHT22;6504;53.766;9.626;2022-09-13T11:11:21;20.10;99.90
12872;DHT22;6504;53.766;9.626;2022-09-13T11:14:03;20.20;99.90
12872;DHT22;6504;53.766;9.626;2022-09-13T11:16:46;20.20;99.90
12872;DHT22;6504;53.766;9.626;2022-09-13T11:22:30;20.30;99.90
12872;DHT22;6504;53.766;9.626;2022-09-13T11:25:13;20.30;99.90
12872;DHT22;6504;53.766;9.626;2022-09-13T11:27:51;20.20;99.90
12872;DHT22;6504;53.766;9.626;2022-09-13T11:30:24;20.20;99.90
12872;DHT22;6504;53.766;9.626;2022-09-13T11:33:14;20.30;99.90
12872;DHT22;6504;53.766;9.626;2022-09-13T11:36:00;20.40;99.90
12872;DHT22;6504;53.766;9.626;2022-09-13T11:38:46;20.30;99.90
12872;DHT22;6504;53.766;9.626;2022-09-13T11:41:26;20.30;99.90
12872;DHT22;6504;53.766;9.626;2022-09-13T11:44:23;20.30;99.90
12872;DHT22;6504;53.766;9.626;2022-09-13T11:47:00;20.20;99.90
12872;DHT22;6504;53.766;9.626;2022-09-13T11:49:59;20.20;99.90
12872;DHT22;6504;53.766;9.626;2022-09-13T11:52:43;20.30;99.90
12872;DHT22;6504;53.766;9.626;2022-09-13T11:55:22;20.30;99.90
12872;DHT22;6504;53.766;9.626;2022-09-13T11:58:00;20.50;99.90
12872;DHT22;6504;53.766;9.626;2022-09-13T12:00:33;20.60;99.90
12872;DHT22;6504;53.766;9.626;2022-09-13T12:03:15;20.70;99.90
12872;DHT22;6504;53.766;9.626;2022-09-13T12:05:46;20.70;99.90
12872;DHT22;6504;53.766;9.626;2022-09-13T12:08:18;20.60;99.90
12872;DHT22;6504;53.766;9.626;2022-09-13T12:10:49;20.70;99.90
12872;DHT22;6504;53.766;9.626;2022-09-13T12:13:20;20.60;99.90
12872;DHT22;6504;53.766;9.626;2022-09-13T12:15:52;20.70;99.90
12872;DHT22;6504;53.766;9.626;2022-09-13T12:18:25;20.70;99.90
12872;DHT22;6504;53.766;9.626;2022-09-13T12:20:56;20.80;99.90
12872;DHT22;6504;53.766;9.626;2022-09-13T12:23:31;20.80;99.90
12872;DHT22;6504;53.766;9.626;2022-09-13T12:26:02;20.80;99.90
12872;DHT22;6504;53.766;9.626;2022-09-13T12:28:36;20.90;99.90
12872;DHT22;6504;53.766;9.626;2022-09-13T12:31:11;20.80;99.90
12872;DHT22;6504;53.766;9.626;2022-09-13T12:33:44;20.70;99.90
12872;DHT22;6504;53.766;9.626;2022-09-13T12:39:48;20.70;99.90
12872;DHT22;6504;53.766;9.626;2022-09-13T12:42:38;20.70;99.90
12872;DHT22;6504;53.766;9.626;2022-09-13T12:45:21;20.60;99.90
12872;DHT22;6504;53.766;9.626;2022-09-13T12:48:12;20.60;99.90
12872;DHT22;6504;53.766;9.626;2022-09-13T12:51:00;20.50;99.90
12872;DHT22;6504;53.766;9.626;2022-09-13T12:57:01;20.40;99.90
12872;DHT22;6504;53.766;9.626;2022-09-13T13:00:01;20.40;99.90
12872;DHT22;6504;53.766;9.626;2022-09-13T13:02:41;20.40;99.90
12872;DHT22;6504;53.766;9.626;2022-09-13T13:05:23;20.20;99.90
12872;DHT22;6504;53.766;9.626;2022-09-13T13:07:54;20.10;99.90
12872;DHT22;6504;53.766;9.626;2022-09-13T13:10:29;20.00;99.90
12872;DHT22;6504;53.766;9.626;2022-09-13T13:13:19;20.00;99.90
12872;DHT22;6504;53.766;9.626;2022-09-13T13:16:01;19.80;99.90
12872;DHT22;6504;53.766;9.626;2022-09-13T13:18:43;19.70;99.90
12872;DHT22;6504;53.766;9.626;2022-09-13T13:21:34;19.60;99.90
12872;DHT22;6504;53.766;9.626;2022-09-13T13:24:37;19.50;99.90
12872;DHT22;6504;53.766;9.626;2022-09-13T13:27:34;19.40;99.90
12872;DHT22;6504;53.766;9.626;2022-09-13T13:30:45;19.50;99.90
12872;DHT22;6504;53.766;9.626;2022-09-13T13:33:27;19.50;99.90
12872;DHT22;6504;53.766;9.626;2022-09-13T13:36:20;19.50;99.90
12872;DHT22;6504;53.766;9.626;2022-09-13T13:38:48;19.60;99.90
12872;DHT22;6504;53.766;9.626;2022-09-13T13:41:51;19.60;99.90
12872;DHT22;6504;53.766;9.626;2022-09-13T13:48:10;19.80;99.90
12872;DHT22;6504;53.766;9.626;2022-09-13T13:51:12;19.90;99.90
12872;DHT22;6504;53.766;9.626;2022-09-13T13:53:47;20.00;99.90
12872;DHT22;6504;53.766;9.626;2022-09-13T13:56:33;20.00;99.90
12872;DHT22;6504;53.766;9.626;2022-09-13T13:59:10;20.10;99.90
12872;DHT22;6504;53.766;9.626;2022-09-13T14:01:47;20.20;99.90
12872;DHT22;6504;53.766;9.626;2022-09-13T14:04:57;20.20;99.90
12872;DHT22;6504;53.766;9.626;2022-09-13T14:08:00;20.30;99.90
12872;DHT22;6504;53.766;9.626;2022-09-13T14:10:44;20.40;99.90
12872;DHT22;6504;53.766;9.626;2022-09-13T14:13:22;20.30;99.90
12872;DHT22;6504;53.766;9.626;2022-09-13T14:15:59;20.30;99.90
12872;DHT22;6504;53.766;9.626;2022-09-13T14:18:53;20.30;99.90
12872;DHT22;6504;53.766;9.626;2022-09-13T14:21:27;20.20;99.90
12872;DHT22;6504;53.766;9.626;2022-09-13T14:24:18;20.20;99.90
12872;DHT22;6504;53.766;9.626;2022-09-13T14:26:50;20.20;99.90
12872;DHT22;6504;53.766;9.626;2022-09-13T14:29:21;20.20;99.90
12872;DHT22;6504;53.766;9.626;2022-09-13T14:31:53;20.10;99.90
12872;DHT22;6504;53.766;9.626;2022-09-13T14:34:28;20.10;99.90
12872;DHT22;6504;53.766;9.626;2022-09-13T14:37:00;20.00;99.90
12872;DHT22;6504;53.766;9.626;2022-09-13T14:39:29;20.00;99.90
12872;DHT22;6504;53.766;9.626;2022-09-13T14:42:14;19.90;99.90
12872;DHT22;6504;53.766;9.626;2022-09-13T14:44:46;19.90;99.90
12872;DHT22;6504;53.766;9.626;2022-09-13T14:47:21;19.80;99.90
12872;DHT22;6504;53.766;9.626;2022-09-13T14:49:54;19.80;99.90
12872;DHT22;6504;53.766;9.626;2022-09-13T14:52:32;19.80;99.90
12872;DHT22;6504;53.766;9.626;2022-09-13T14:55:05;19.70;99.90
12872;DHT22;6504;53.766;9.626;2022-09-13T14:57:40;19.60;99.90
12872;DHT22;6504;53.766;9.626;2022-09-13T15:00:19;19.60;99.90
12872;DHT22;6504;53.766;9.626;2022-09-13T15:02:49;19.60;99.90
12872;DHT22;6504;53.766;9.626;2022-09-13T15:05:24;19.60;99.90
12872;DHT22;6504;53.766;9.626;2022-09-13T15:07:54;19.50;99.90
12872;DHT22;6504;53.766;9.626;2022-09-13T15:10:28;19.50;99.90
12872;DHT22;6504;53.766;9.626;2022-09-13T15:13:10;19.40;99.90
12872;DHT22;6504;53.766;9.626;2022-09-13T15:15:38;19.40;99.90
12872;DHT22;6504;53.766;9.626;2022-09-13T15:18:23;19.40;99.90
12872;DHT22;6504;53.766;9.626;2022-09-13T15:20:56;19.40;99.90
12872;DHT22;6504;53.766;9.626;2022-09-13T15:23:28;19.40;99.90
12872;DHT22;6504;53.766;9.626;2022-09-13T15:26:05;19.30;99.90
12872;DHT22;6504;53.766;9.626;2022-09-13T15:31:21;19.20;99.90
12872;DHT22;6504;53.766;9.626;2022-09-13T15:34:10;19.10;99.90
12872;DHT22;6504;53.766;9.626;2022-09-13T15:36:39;19.10;99.90
12872;DHT22;6504;53.766;9.626;2022-09-13T15:39:15;19.10;99.90
12872;DHT22;6504;53.766;9.626;2022-09-13T15:41:56;19.10;99.90
12872;DHT22;6504;53.766;9.626;2022-09-13T15:44:26;19.10;99.90
12872;DHT22;6504;53.766;9.626;2022-09-13T15:47:00;19.10;99.90
12872;DHT22;6504;53.766;9.626;2022-09-13T15:49:31;19.10;99.90
12872;DHT22;6504;53.766;9.626;2022-09-13T15:52:03;19.00;99.90
12872;DHT22;6504;53.766;9.626;2022-09-13T15:54:35;19.00;99.90
12872;DHT22;6504;53.766;9.626;2022-09-13T15:57:08;18.90;99.90
12872;DHT22;6504;53.766;9.626;2022-09-13T15:59:36;18.90;99.90
12872;DHT22;6504;53.766;9.626;2022-09-13T16:02:16;18.80;99.90
12872;DHT22;6504;53.766;9.626;2022-09-13T16:04:44;18.80;99.90
12872;DHT22;6504;53.766;9.626;2022-09-13T16:07:12;18.80;99.90
12872;DHT22;6504;53.766;9.626;2022-09-13T16:09:44;18.70;99.90
12872;DHT22;6504;53.766;9.626;2022-09-13T16:12:14;18.70;99.90
12872;DHT22;6504;53.766;9.626;2022-09-13T16:14:42;18.70;99.90
12872;DHT22;6504;53.766;9.626;2022-09-13T16:17:11;18.60;99.90
12872;DHT22;6504;53.766;9.626;2022-09-13T16:19:40;18.50;99.90
12872;DHT22;6504;53.766;9.626;2022-09-13T16:22:11;18.50;99.90
12872;DHT22;6504;53.766;9.626;2022-09-13T16:24:39;18.40;99.90
12872;DHT22;6504;53.766;9.626;2022-09-13T16:27:14;18.40;99.90
12872;DHT22;6504;53.766;9.626;2022-09-13T16:29:43;18.40;99.90
12872;DHT22;6504;53.766;9.626;2022-09-13T16:32:14;18.30;99.90
12872;DHT22;6504;53.766;9.626;2022-09-13T16:34:42;18.30;99.90
12872;DHT22;6504;53.766;9.626;2022-09-13T16:37:15;18.20;99.90
12872;DHT22;6504;53.766;9.626;2022-09-13T16:39:44;18.20;99.90
12872;DHT22;6504;53.766;9.626;2022-09-13T16:42:17;18.10;99.90
12872;DHT22;6504;53.766;9.626;2022-09-13T16:44:45;18.10;99.90
12872;DHT22;6504;53.766;9.626;2022-09-13T16:47:13;18.10;99.90
12872;DHT22;6504;53.766;9.626;2022-09-13T16:49:43;18.00;99.90
12872;DHT22;6504;53.766;9.626;2022-09-13T16:52:11;18.00;99.90
12872;DHT22;6504;53.766;9.626;2022-09-13T16:54:40;18.00;99.90
12872;DHT22;6504;53.766;9.626;2022-09-13T16:57:08;17.90;99.90
12872;DHT22;6504;53.766;9.626;2022-09-13T16:59:38;17.90;99.90
12872;DHT22;6504;53.766;9.626;2022-09-13T17:02:08;17.90;99.90